sensor_id;sensor_type;location;lat;lon;timestamp;pressure;altitude;pressure_sealevel;temperature;humidity
31331;BME280;34067;39.548;-76.088;2024-02-26T00:00:05;101857.68;;;5.85;30.59
31331;BME280;34067;39.548;-76.088;2024-02-26T00:02:32;101853.23;;;5.46;30.68
31331;BME280;34067;39.548;-76.088;2024-02-26T00:05:01;101848.40;;;5.61;30.50
31331;BME280;34067;39.548;-76.088;2024-02-26T00:07:28;101849.03;;;5.43;30.67
31331;BME280;34067;39.548;-76.088;2024-02-26T00:09:56;101844.33;;;6.05;30.79
31331;BME280;34067;39.548;-76.088;2024-02-26T00:12:23;101841.11;;;5.65;30.85
31331;BME280;34067;39.548;-76.088;2024-02-26T00:14:51;101844.40;;;5.16;31.03
31331;BME280;34067;39.548;-76.088;2024-02-26T00:17:19;101842.61;;;5.67;31.06
31331;BME280;34067;39.548;-76.088;2024-02-26T00:19:48;101836.25;;;5.68;31.42
31331;BME280;34067;39.548;-76.088;2024-02-26T00:22:17;101836.25;;;5.29;31.95
31331;BME280;34067;39.548;-76.088;2024-02-26T00:24:44;101829.41;;;4.82;32.70
31331;BME280;34067;39.548;-76.088;2024-02-26T00:27:13;101828.47;;;5.04;32.92
31331;BME280;34067;39.548;-76.088;2024-02-26T00:29:40;101829.69;;;4.86;33.45
31331;BME280;34067;39.548;-76.088;2024-02-26T00:32:08;101830.17;;;4.92;33.94
31331;BME280;34067;39.548;-76.088;2024-02-26T00:34:36;101831.45;;;5.18;33.88
31331;BME280;34067;39.548;-76.088;2024-02-26T00:37:04;101829.61;;;4.58;34.68
31331;BME280;34067;39.548;-76.088;2024-02-26T00:39:32;101824.24;;;5.11;34.83
31331;BME280;34067;39.548;-76.088;2024-02-26T00:41:59;101825.39;;;5.02;35.31
31331;BME280;34067;39.548;-76.088;2024-02-26T00:44:27;101831.65;;;5.33;35.35
31331;BME280;34067;39.548;-76.088;2024-02-26T00:46:55;101835.47;;;5.33;35.51
31331;BME280;34067;39.548;-76.088;2024-02-26T00:49:22;101831.78;;;5.21;35.82
31331;BME280;34067;39.548;-76.088;2024-02-26T00:51:50;101831.96;;;5.08;35.96
31331;BME280;34067;39.548;-76.088;2024-02-26T00:54:18;101834.87;;;5.19;35.84
31331;BME280;34067;39.548;-76.088;2024-02-26T00:56:46;101839.30;;;4.86;36.29
31331;BME280;34067;39.548;-76.088;2024-02-26T00:59:13;101838.82;;;4.43;36.05
31331;BME280;34067;39.548;-76.088;2024-02-26T01:01:41;101837.57;;;4.58;36.22
31331;BME280;34067;39.548;-76.088;2024-02-26T01:04:08;101838.43;;;5.21;36.01
31331;BME280;34067;39.548;-76.088;2024-02-26T01:06:36;101842.50;;;4.62;35.71
31331;BME280;34067;39.548;-76.088;2024-02-26T01:09:04;101847.53;;;4.46;35.41
31331;BME280;34067;39.548;-76.088;2024-02-26T01:11:31;101853.43;;;4.58;35.20
31331;BME280;34067;39.548;-76.088;2024-02-26T01:13:59;101851.19;;;4.74;35.14
31331;BME280;34067;39.548;-76.088;2024-02-26T01:16:26;101854.80;;;4.62;35.12
31331;BME280;34067;39.548;-76.088;2024-02-26T01:18:55;101855.02;;;4.75;34.87
31331;BME280;34067;39.548;-76.088;2024-02-26T01:21:22;101855.53;;;4.56;34.92
31331;BME280;34067;39.548;-76.088;2024-02-26T01:23:50;101859.35;;;4.90;34.41
31331;BME280;34067;39.548;-76.088;2024-02-26T01:26:17;101859.34;;;4.93;34.33
31331;BME280;34067;39.548;-76.088;2024-02-26T01:28:45;101860.21;;;5.53;34.27
31331;BME280;34067;39.548;-76.088;2024-02-26T01:31:12;101864.49;;;4.94;34.38
31331;BME280;34067;39.548;-76.088;2024-02-26T01:33:40;101862.39;;;5.07;34.25
31331;BME280;34067;39.548;-76.088;2024-02-26T01:36:07;101862.79;;;4.55;34.30
31331;BME280;34067;39.548;-76.088;2024-02-26T01:38:35;101865.64;;;4.94;34.39
31331;BME280;34067;39.548;-76.088;2024-02-26T01:41:03;101859.37;;;5.18;34.53
31331;BME280;34067;39.548;-76.088;2024-02-26T01:43:31;101856.19;;;4.61;34.79
31331;BME280;34067;39.548;-76.088;2024-02-26T01:46:00;101861.05;;;4.59;35.01
31331;BME280;34067;39.548;-76.088;2024-02-26T01:48:27;101857.63;;;4.33;35.07
31331;BME280;34067;39.548;-76.088;2024-02-26T01:50:56;101864.03;;;4.19;35.37
31331;BME280;34067;39.548;-76.088;2024-02-26T01:53:24;101868.66;;;4.48;35.45
31331;BME280;34067;39.548;-76.088;2024-02-26T01:55:52;101871.19;;;4.60;35.60
31331;BME280;34067;39.548;-76.088;2024-02-26T01:58:20;101872.67;;;4.53;35.54
31331;BME280;34067;39.548;-76.088;2024-02-26T02:00:49;101873.09;;;4.12;36.22
31331;BME280;34067;39.548;-76.088;2024-02-26T02:03:17;101870.70;;;4.45;36.27
31331;BME280;34067;39.548;-76.088;2024-02-26T02:05:45;101868.96;;;3.66;36.27
31331;BME280;34067;39.548;-76.088;2024-02-26T02:08:13;101865.11;;;4.33;36.71
31331;BME280;34067;39.548;-76.088;2024-02-26T02:10:42;101867.10;;;4.41;36.81
31331;BME280;34067;39.548;-76.088;2024-02-26T02:13:10;101871.32;;;3.50;36.85
31331;BME280;34067;39.548;-76.088;2024-02-26T02:15:38;101867.28;;;4.62;36.71
31331;BME280;34067;39.548;-76.088;2024-02-26T02:18:06;101867.71;;;4.68;36.37
31331;BME280;34067;39.548;-76.088;2024-02-26T02:20:35;101867.57;;;4.35;36.34
31331;BME280;34067;39.548;-76.088;2024-02-26T02:23:04;101871.95;;;4.54;36.17
31331;BME280;34067;39.548;-76.088;2024-02-26T02:25:31;101874.92;;;4.62;36.17
31331;BME280;34067;39.548;-76.088;2024-02-26T02:28:00;101877.28;;;4.53;35.91
31331;BME280;34067;39.548;-76.088;2024-02-26T02:30:29;101877.54;;;4.15;35.94
31331;BME280;34067;39.548;-76.088;2024-02-26T02:32:58;101878.60;;;4.28;35.83
31331;BME280;34067;39.548;-76.088;2024-02-26T02:35:25;101880.24;;;4.67;35.91
31331;BME280;34067;39.548;-76.088;2024-02-26T02:37:53;101879.23;;;4.22;35.90
31331;BME280;34067;39.548;-76.088;2024-02-26T02:40:21;101874.15;;;4.32;35.84
31331;BME280;34067;39.548;-76.088;2024-02-26T02:42:49;101876.92;;;3.96;36.32
31331;BME280;34067;39.548;-76.088;2024-02-26T02:45:16;101872.26;;;4.27;36.25
31331;BME280;34067;39.548;-76.088;2024-02-26T02:47:44;101868.55;;;4.16;36.35
31331;BME280;34067;39.548;-76.088;2024-02-26T02:50:11;101865.25;;;5.14;36.35
31331;BME280;34067;39.548;-76.088;2024-02-26T02:52:39;101866.00;;;4.79;36.91
31331;BME280;34067;39.548;-76.088;2024-02-26T02:55:08;101869.20;;;4.88;37.15
31331;BME280;34067;39.548;-76.088;2024-02-26T02:57:36;101867.43;;;4.28;37.19
31331;BME280;34067;39.548;-76.088;2024-02-26T03:00:05;101863.68;;;4.90;37.26
31331;BME280;34067;39.548;-76.088;2024-02-26T03:02:33;101856.13;;;4.55;37.27
31331;BME280;34067;39.548;-76.088;2024-02-26T03:05:01;101858.15;;;3.64;37.46
31331;BME280;34067;39.548;-76.088;2024-02-26T03:07:28;101860.37;;;4.43;37.19
31331;BME280;34067;39.548;-76.088;2024-02-26T03:09:56;101855.53;;;4.43;37.19
31331;BME280;34067;39.548;-76.088;2024-02-26T03:12:24;101850.99;;;5.38;37.27
31331;BME280;34067;39.548;-76.088;2024-02-26T03:14:51;101848.27;;;4.47;37.65
31331;BME280;34067;39.548;-76.088;2024-02-26T03:17:19;101850.56;;;4.76;37.48
31331;BME280;34067;39.548;-76.088;2024-02-26T03:19:47;101854.35;;;4.42;37.41
31331;BME280;34067;39.548;-76.088;2024-02-26T03:22:15;101851.13;;;4.24;37.71
31331;BME280;34067;39.548;-76.088;2024-02-26T03:24:42;101848.35;;;4.24;37.73
31331;BME280;34067;39.548;-76.088;2024-02-26T03:27:11;101845.37;;;3.82;38.13
31331;BME280;34067;39.548;-76.088;2024-02-26T03:29:38;101848.07;;;5.03;37.83
31331;BME280;34067;39.548;-76.088;2024-02-26T03:32:06;101846.63;;;3.73;38.29
31331;BME280;34067;39.548;-76.088;2024-02-26T03:34:34;101844.90;;;4.04;38.04
31331;BME280;34067;39.548;-76.088;2024-02-26T03:37:02;101839.54;;;4.82;38.27
31331;BME280;34067;39.548;-76.088;2024-02-26T03:39:30;101836.73;;;4.60;37.84
31331;BME280;34067;39.548;-76.088;2024-02-26T03:41:57;101839.78;;;4.86;38.08
31331;BME280;34067;39.548;-76.088;2024-02-26T03:44:25;101839.96;;;3.95;38.13
31331;BME280;34067;39.548;-76.088;2024-02-26T03:46:52;101837.01;;;4.23;38.16
31331;BME280;34067;39.548;-76.088;2024-02-26T03:49:20;101842.22;;;3.86;38.52
31331;BME280;34067;39.548;-76.088;2024-02-26T03:51:47;101841.85;;;4.68;38.36
31331;BME280;34067;39.548;-76.088;2024-02-26T03:54:16;101840.79;;;4.39;38.43
31331;BME280;34067;39.548;-76.088;2024-02-26T03:56:43;101845.01;;;3.97;39.09
31331;BME280;34067;39.548;-76.088;2024-02-26T03:59:11;101838.02;;;3.74;39.30
31331;BME280;34067;39.548;-76.088;2024-02-26T04:01:38;101828.97;;;3.72;39.24
31331;BME280;34067;39.548;-76.088;2024-02-26T04:04:06;101824.54;;;3.80;39.56
31331;BME280;34067;39.548;-76.088;2024-02-26T04:06:34;101821.38;;;3.33;39.80
31331;BME280;34067;39.548;-76.088;2024-02-26T04:09:02;101814.39;;;3.42;40.03
31331;BME280;34067;39.548;-76.088;2024-02-26T04:11:30;101807.67;;;3.98;39.94
31331;BME280;34067;39.548;-76.088;2024-02-26T04:13:57;101803.65;;;3.37;40.37
31331;BME280;34067;39.548;-76.088;2024-02-26T04:16:25;101799.49;;;3.23;40.58
31331;BME280;34067;39.548;-76.088;2024-02-26T04:18:52;101798.10;;;3.36;40.69
31331;BME280;34067;39.548;-76.088;2024-02-26T04:21:20;101793.90;;;3.32;40.91
31331;BME280;34067;39.548;-76.088;2024-02-26T04:23:48;101788.98;;;3.31;41.48
31331;BME280;34067;39.548;-76.088;2024-02-26T04:26:16;101788.13;;;3.15;41.38
31331;BME280;34067;39.548;-76.088;2024-02-26T04:28:44;101786.35;;;3.66;41.64
31331;BME280;34067;39.548;-76.088;2024-02-26T04:31:12;101779.78;;;3.09;42.45
31331;BME280;34067;39.548;-76.088;2024-02-26T04:33:40;101775.85;;;3.24;42.64
31331;BME280;34067;39.548;-76.088;2024-02-26T04:36:13;101775.67;;;2.83;43.09
31331;BME280;34067;39.548;-76.088;2024-02-26T04:38:41;101769.75;;;3.63;43.27
31331;BME280;34067;39.548;-76.088;2024-02-26T04:41:08;101766.36;;;3.11;43.56
31331;BME280;34067;39.548;-76.088;2024-02-26T04:43:38;101762.70;;;2.90;43.30
31331;BME280;34067;39.548;-76.088;2024-02-26T04:46:06;101761.38;;;3.20;43.73
31331;BME280;34067;39.548;-76.088;2024-02-26T04:48:34;101759.48;;;3.17;44.01
31331;BME280;34067;39.548;-76.088;2024-02-26T04:51:02;101760.84;;;3.26;44.09
31331;BME280;34067;39.548;-76.088;2024-02-26T04:53:31;101753.71;;;2.93;44.62
31331;BME280;34067;39.548;-76.088;2024-02-26T04:55:59;101749.26;;;2.82;45.14
31331;BME280;34067;39.548;-76.088;2024-02-26T04:58:26;101754.59;;;2.42;45.71
31331;BME280;34067;39.548;-76.088;2024-02-26T05:00:55;101751.89;;;2.98;45.27
31331;BME280;34067;39.548;-76.088;2024-02-26T05:03:23;101749.06;;;3.28;44.89
31331;BME280;34067;39.548;-76.088;2024-02-26T05:05:50;101745.44;;;3.29;44.68
31331;BME280;34067;39.548;-76.088;2024-02-26T05:08:18;101740.21;;;3.50;44.89
31331;BME280;34067;39.548;-76.088;2024-02-26T05:10:46;101740.27;;;3.89;44.58
31331;BME280;34067;39.548;-76.088;2024-02-26T05:13:14;101739.90;;;3.95;43.98
31331;BME280;34067;39.548;-76.088;2024-02-26T05:15:41;101742.43;;;4.32;44.37
31331;BME280;34067;39.548;-76.088;2024-02-26T05:18:09;101744.34;;;4.32;44.40
31331;BME280;34067;39.548;-76.088;2024-02-26T05:20:37;101740.18;;;4.42;44.44
31331;BME280;34067;39.548;-76.088;2024-02-26T05:23:04;101739.90;;;3.89;45.03
31331;BME280;34067;39.548;-76.088;2024-02-26T05:25:33;101734.65;;;3.85;45.01
31331;BME280;34067;39.548;-76.088;2024-02-26T05:28:01;101731.30;;;3.36;45.69
31331;BME280;34067;39.548;-76.088;2024-02-26T05:30:28;101728.52;;;3.44;45.85
31331;BME280;34067;39.548;-76.088;2024-02-26T05:32:56;101730.04;;;3.67;45.75
31331;BME280;34067;39.548;-76.088;2024-02-26T05:35:24;101732.86;;;3.90;45.68
31331;BME280;34067;39.548;-76.088;2024-02-26T05:37:52;101733.57;;;4.06;45.82
31331;BME280;34067;39.548;-76.088;2024-02-26T05:40:19;101730.84;;;4.18;45.68
31331;BME280;34067;39.548;-76.088;2024-02-26T05:42:48;101734.47;;;4.01;46.08
31331;BME280;34067;39.548;-76.088;2024-02-26T05:45:15;101730.19;;;3.60;46.79
31331;BME280;34067;39.548;-76.088;2024-02-26T05:47:43;101728.96;;;3.73;46.68
31331;BME280;34067;39.548;-76.088;2024-02-26T05:50:12;101728.77;;;4.07;46.52
31331;BME280;34067;39.548;-76.088;2024-02-26T05:52:40;101727.42;;;3.87;46.69
31331;BME280;34067;39.548;-76.088;2024-02-26T05:55:09;101728.50;;;3.08;48.07
31331;BME280;34067;39.548;-76.088;2024-02-26T05:57:37;101725.98;;;3.46;47.68
31331;BME280;34067;39.548;-76.088;2024-02-26T06:03:16;101728.10;;;4.13;47.46
31331;BME280;34067;39.548;-76.088;2024-02-26T06:05:43;101724.51;;;4.00;47.40
31331;BME280;34067;39.548;-76.088;2024-02-26T06:08:11;101724.03;;;3.62;48.19
31331;BME280;34067;39.548;-76.088;2024-02-26T06:10:39;101726.09;;;3.58;48.64
31331;BME280;34067;39.548;-76.088;2024-02-26T06:13:08;101731.79;;;3.79;48.63
31331;BME280;34067;39.548;-76.088;2024-02-26T06:15:36;101736.48;;;4.08;48.26
31331;BME280;34067;39.548;-76.088;2024-02-26T06:18:04;101735.65;;;3.55;48.91
31331;BME280;34067;39.548;-76.088;2024-02-26T06:20:32;101732.09;;;3.47;49.62
31331;BME280;34067;39.548;-76.088;2024-02-26T06:22:59;101730.13;;;3.92;49.32
31331;BME280;34067;39.548;-76.088;2024-02-26T06:25:27;101733.30;;;3.87;49.63
31331;BME280;34067;39.548;-76.088;2024-02-26T06:27:54;101732.13;;;3.83;48.96
31331;BME280;34067;39.548;-76.088;2024-02-26T06:30:22;101732.02;;;4.45;49.18
31331;BME280;34067;39.548;-76.088;2024-02-26T06:32:49;101731.54;;;4.65;48.72
31331;BME280;34067;39.548;-76.088;2024-02-26T06:35:17;101729.55;;;4.46;49.32
31331;BME280;34067;39.548;-76.088;2024-02-26T06:37:45;101730.76;;;4.86;48.46
31331;BME280;34067;39.548;-76.088;2024-02-26T06:40:14;101729.27;;;4.23;49.14
31331;BME280;34067;39.548;-76.088;2024-02-26T06:42:42;101728.49;;;3.74;48.92
31331;BME280;34067;39.548;-76.088;2024-02-26T06:45:09;101721.00;;;4.24;49.47
31331;BME280;34067;39.548;-76.088;2024-02-26T06:47:38;101715.55;;;3.80;49.57
31331;BME280;34067;39.548;-76.088;2024-02-26T06:50:06;101707.40;;;3.57;49.71
31331;BME280;34067;39.548;-76.088;2024-02-26T06:52:34;101709.33;;;3.59;49.80
31331;BME280;34067;39.548;-76.088;2024-02-26T06:55:01;101709.58;;;4.03;49.13
31331;BME280;34067;39.548;-76.088;2024-02-26T06:57:29;101711.02;;;4.37;49.30
31331;BME280;34067;39.548;-76.088;2024-02-26T06:59:57;101708.61;;;3.39;49.37
31331;BME280;34067;39.548;-76.088;2024-02-26T07:02:24;101707.87;;;4.02;49.98
31331;BME280;34067;39.548;-76.088;2024-02-26T07:04:52;101705.99;;;3.87;49.43
31331;BME280;34067;39.548;-76.088;2024-02-26T07:07:19;101707.74;;;3.95;49.70
31331;BME280;34067;39.548;-76.088;2024-02-26T07:09:47;101706.64;;;3.93;50.26
31331;BME280;34067;39.548;-76.088;2024-02-26T07:12:14;101703.47;;;4.37;49.70
31331;BME280;34067;39.548;-76.088;2024-02-26T07:14:43;101702.90;;;3.20;49.31
31331;BME280;34067;39.548;-76.088;2024-02-26T07:17:10;101701.63;;;3.66;49.58
31331;BME280;34067;39.548;-76.088;2024-02-26T07:19:38;101702.03;;;3.70;50.85
31331;BME280;34067;39.548;-76.088;2024-02-26T07:22:06;101702.52;;;3.78;50.75
31331;BME280;34067;39.548;-76.088;2024-02-26T07:24:33;101708.78;;;4.20;50.14
31331;BME280;34067;39.548;-76.088;2024-02-26T07:27:01;101717.27;;;4.11;49.34
31331;BME280;34067;39.548;-76.088;2024-02-26T07:29:28;101725.21;;;4.56;49.85
31331;BME280;34067;39.548;-76.088;2024-02-26T07:31:56;101731.68;;;3.83;49.52
31331;BME280;34067;39.548;-76.088;2024-02-26T07:34:24;101732.10;;;4.49;49.16
31331;BME280;34067;39.548;-76.088;2024-02-26T07:36:53;101731.66;;;4.20;49.24
31331;BME280;34067;39.548;-76.088;2024-02-26T07:39:20;101725.16;;;4.31;48.82
31331;BME280;34067;39.548;-76.088;2024-02-26T07:41:48;101723.10;;;4.28;48.78
31331;BME280;34067;39.548;-76.088;2024-02-26T07:44:16;101724.57;;;4.31;49.23
31331;BME280;34067;39.548;-76.088;2024-02-26T07:46:44;101725.64;;;5.26;48.90
31331;BME280;34067;39.548;-76.088;2024-02-26T07:49:13;101725.75;;;4.16;48.94
31331;BME280;34067;39.548;-76.088;2024-02-26T07:51:41;101727.03;;;3.95;49.34
31331;BME280;34067;39.548;-76.088;2024-02-26T07:54:09;101726.23;;;4.39;49.03
31331;BME280;34067;39.548;-76.088;2024-02-26T07:56:37;101726.18;;;3.58;50.56
31331;BME280;34067;39.548;-76.088;2024-02-26T07:59:04;101718.20;;;3.90;50.28
31331;BME280;34067;39.548;-76.088;2024-02-26T08:01:32;101716.43;;;4.01;50.15
31331;BME280;34067;39.548;-76.088;2024-02-26T08:03:59;101711.04;;;4.07;50.50
31331;BME280;34067;39.548;-76.088;2024-02-26T08:06:27;101703.48;;;3.80;50.71
31331;BME280;34067;39.548;-76.088;2024-02-26T08:08:54;101695.00;;;3.85;50.28
31331;BME280;34067;39.548;-76.088;2024-02-26T08:11:22;101693.09;;;3.91;49.74
31331;BME280;34067;39.548;-76.088;2024-02-26T08:13:50;101691.39;;;4.84;50.60
31331;BME280;34067;39.548;-76.088;2024-02-26T08:16:18;101696.40;;;4.03;50.50
31331;BME280;34067;39.548;-76.088;2024-02-26T08:18:45;101691.57;;;3.80;50.69
31331;BME280;34067;39.548;-76.088;2024-02-26T08:21:13;101684.32;;;3.95;50.65
31331;BME280;34067;39.548;-76.088;2024-02-26T08:23:43;101676.45;;;3.92;50.61
31331;BME280;34067;39.548;-76.088;2024-02-26T08:26:11;101676.55;;;3.80;51.25
31331;BME280;34067;39.548;-76.088;2024-02-26T08:28:39;101676.52;;;4.14;51.72
31331;BME280;34067;39.548;-76.088;2024-02-26T08:31:06;101677.12;;;4.74;51.61
31331;BME280;34067;39.548;-76.088;2024-02-26T08:33:34;101677.37;;;4.35;51.22
31331;BME280;34067;39.548;-76.088;2024-02-26T08:36:05;101674.35;;;4.65;51.22
31331;BME280;34067;39.548;-76.088;2024-02-26T08:38:32;101670.90;;;4.38;51.49
31331;BME280;34067;39.548;-76.088;2024-02-26T08:41:00;101673.75;;;4.11;51.77
31331;BME280;34067;39.548;-76.088;2024-02-26T08:43:28;101670.85;;;4.09;52.40
31331;BME280;34067;39.548;-76.088;2024-02-26T08:45:57;101664.61;;;4.46;52.86
31331;BME280;34067;39.548;-76.088;2024-02-26T08:48:25;101665.71;;;4.44;53.06
31331;BME280;34067;39.548;-76.088;2024-02-26T08:50:52;101659.94;;;4.18;52.61
31331;BME280;34067;39.548;-76.088;2024-02-26T08:53:20;101659.53;;;4.06;52.94
31331;BME280;34067;39.548;-76.088;2024-02-26T08:55:48;101659.87;;;4.43;53.40
31331;BME280;34067;39.548;-76.088;2024-02-26T08:58:16;101656.86;;;4.09;53.95
31331;BME280;34067;39.548;-76.088;2024-02-26T09:00:43;101650.41;;;4.30;53.71
31331;BME280;34067;39.548;-76.088;2024-02-26T09:03:11;101649.47;;;4.82;54.05
31331;BME280;34067;39.548;-76.088;2024-02-26T09:05:39;101649.80;;;4.04;54.01
31331;BME280;34067;39.548;-76.088;2024-02-26T09:08:07;101645.31;;;4.11;54.22
31331;BME280;34067;39.548;-76.088;2024-02-26T09:10:35;101642.42;;;3.68;55.66
31331;BME280;34067;39.548;-76.088;2024-02-26T09:13:02;101643.64;;;4.28;53.88
31331;BME280;34067;39.548;-76.088;2024-02-26T09:15:31;101643.95;;;5.05;55.27
31331;BME280;34067;39.548;-76.088;2024-02-26T09:17:58;101638.64;;;4.30;56.33
31331;BME280;34067;39.548;-76.088;2024-02-26T09:20:26;101634.28;;;4.09;55.45
31331;BME280;34067;39.548;-76.088;2024-02-26T09:22:54;101635.09;;;4.00;55.73
31331;BME280;34067;39.548;-76.088;2024-02-26T09:25:21;101628.31;;;5.02;55.67
31331;BME280;34067;39.548;-76.088;2024-02-26T09:27:49;101628.83;;;4.49;56.02
31331;BME280;34067;39.548;-76.088;2024-02-26T09:30:16;101631.21;;;4.02;56.14
31331;BME280;34067;39.548;-76.088;2024-02-26T09:32:47;101629.64;;;4.35;56.32
31331;BME280;34067;39.548;-76.088;2024-02-26T09:35:15;101630.12;;;4.30;55.98
31331;BME280;34067;39.548;-76.088;2024-02-26T09:37:43;101628.44;;;4.37;56.54
31331;BME280;34067;39.548;-76.088;2024-02-26T09:40:11;101625.54;;;4.20;56.32
31331;BME280;34067;39.548;-76.088;2024-02-26T09:42:43;101627.60;;;4.66;56.62
31331;BME280;34067;39.548;-76.088;2024-02-26T09:45:17;101622.78;;;4.04;56.04
31331;BME280;34067;39.548;-76.088;2024-02-26T09:47:46;101625.82;;;4.83;55.45
31331;BME280;34067;39.548;-76.088;2024-02-26T09:50:17;101624.54;;;4.85;55.28
31331;BME280;34067;39.548;-76.088;2024-02-26T09:52:45;101630.17;;;4.62;55.00
31331;BME280;34067;39.548;-76.088;2024-02-26T09:55:12;101623.11;;;4.58;55.50
31331;BME280;34067;39.548;-76.088;2024-02-26T09:57:45;101622.43;;;4.68;55.23
31331;BME280;34067;39.548;-76.088;2024-02-26T10:00:17;101617.95;;;4.45;55.35
31331;BME280;34067;39.548;-76.088;2024-02-26T10:02:46;101617.33;;;5.01;55.32
31331;BME280;34067;39.548;-76.088;2024-02-26T10:05:17;101611.69;;;4.25;55.00
31331;BME280;34067;39.548;-76.088;2024-02-26T10:07:46;101616.66;;;4.35;55.26
31331;BME280;34067;39.548;-76.088;2024-02-26T10:10:15;101614.59;;;4.55;54.72
31331;BME280;34067;39.548;-76.088;2024-02-26T10:12:44;101612.92;;;4.68;54.90
31331;BME280;34067;39.548;-76.088;2024-02-26T10:15:11;101615.51;;;4.74;54.34
31331;BME280;34067;39.548;-76.088;2024-02-26T10:17:39;101611.29;;;4.72;54.19
31331;BME280;34067;39.548;-76.088;2024-02-26T10:20:13;101614.09;;;4.85;54.18
31331;BME280;34067;39.548;-76.088;2024-02-26T10:22:41;101611.79;;;4.74;54.45
31331;BME280;34067;39.548;-76.088;2024-02-26T10:25:10;101605.17;;;4.94;54.11
31331;BME280;34067;39.548;-76.088;2024-02-26T10:27:38;101608.76;;;4.90;54.38
31331;BME280;34067;39.548;-76.088;2024-02-26T10:30:17;101612.85;;;4.93;54.67
31331;BME280;34067;39.548;-76.088;2024-02-26T10:32:45;101615.83;;;4.85;55.03
31331;BME280;34067;39.548;-76.088;2024-02-26T10:35:13;101616.41;;;4.66;55.61
31331;BME280;34067;39.548;-76.088;2024-02-26T10:37:42;101612.62;;;4.69;55.24
31331;BME280;34067;39.548;-76.088;2024-02-26T10:40:11;101614.24;;;4.69;55.22
31331;BME280;34067;39.548;-76.088;2024-02-26T10:42:39;101610.94;;;4.53;55.42
31331;BME280;34067;39.548;-76.088;2024-02-26T10:45:09;101613.14;;;4.72;55.70
31331;BME280;34067;39.548;-76.088;2024-02-26T10:47:37;101616.49;;;4.52;55.77
31331;BME280;34067;39.548;-76.088;2024-02-26T10:50:06;101618.35;;;4.67;55.45
31331;BME280;34067;39.548;-76.088;2024-02-26T10:52:35;101610.43;;;4.26;55.49
31331;BME280;34067;39.548;-76.088;2024-02-26T10:55:05;101611.99;;;4.41;55.40
31331;BME280;34067;39.548;-76.088;2024-02-26T10:57:36;101617.85;;;4.56;55.25
31331;BME280;34067;39.548;-76.088;2024-02-26T11:00:06;101618.83;;;4.57;55.25
31331;BME280;34067;39.548;-76.088;2024-02-26T11:02:36;101621.25;;;4.63;55.07
31331;BME280;34067;39.548;-76.088;2024-02-26T11:05:05;101621.06;;;4.60;55.07
31331;BME280;34067;39.548;-76.088;2024-02-26T11:07:34;101614.79;;;4.43;54.83
31331;BME280;34067;39.548;-76.088;2024-02-26T11:10:04;101614.64;;;4.59;54.72
31331;BME280;34067;39.548;-76.088;2024-02-26T11:12:33;101609.56;;;4.59;54.15
31331;BME280;34067;39.548;-76.088;2024-02-26T11:15:02;101615.26;;;4.57;54.86
31331;BME280;34067;39.548;-76.088;2024-02-26T11:17:30;101610.05;;;5.05;55.54
31331;BME280;34067;39.548;-76.088;2024-02-26T11:20:00;101607.50;;;3.78;55.30
31331;BME280;34067;39.548;-76.088;2024-02-26T11:22:28;101605.32;;;4.71;54.85
31331;BME280;34067;39.548;-76.088;2024-02-26T11:24:57;101605.12;;;3.93;55.56
31331;BME280;34067;39.548;-76.088;2024-02-26T11:27:28;101602.23;;;4.73;56.07
31331;BME280;34067;39.548;-76.088;2024-02-26T11:29:58;101602.95;;;4.74;55.71
31331;BME280;34067;39.548;-76.088;2024-02-26T11:32:28;101603.26;;;4.37;55.17
31331;BME280;34067;39.548;-76.088;2024-02-26T11:34:58;101610.19;;;3.84;54.98
31331;BME280;34067;39.548;-76.088;2024-02-26T11:37:26;101611.62;;;4.47;54.72
31331;BME280;34067;39.548;-76.088;2024-02-26T11:39:54;101620.35;;;3.88;55.00
31331;BME280;34067;39.548;-76.088;2024-02-26T11:42:24;101622.28;;;4.49;54.44
31331;BME280;34067;39.548;-76.088;2024-02-26T11:44:52;101628.19;;;4.43;55.38
31331;BME280;34067;39.548;-76.088;2024-02-26T11:47:20;101626.29;;;4.17;56.36
31331;BME280;34067;39.548;-76.088;2024-02-26T11:49:49;101627.37;;;4.33;56.25
31331;BME280;34067;39.548;-76.088;2024-02-26T11:52:17;101635.67;;;4.07;56.53
31331;BME280;34067;39.548;-76.088;2024-02-26T11:54:46;101640.48;;;4.03;56.55
31331;BME280;34067;39.548;-76.088;2024-02-26T11:57:23;101643.59;;;3.87;56.31
31331;BME280;34067;39.548;-76.088;2024-02-26T11:59:52;101650.16;;;4.77;57.11
31331;BME280;34067;39.548;-76.088;2024-02-26T12:02:51;101653.86;;;4.67;56.82
31331;BME280;34067;39.548;-76.088;2024-02-26T12:05:21;101654.71;;;4.59;56.75
31331;BME280;34067;39.548;-76.088;2024-02-26T12:07:54;101657.16;;;4.61;56.69
31331;BME280;34067;39.548;-76.088;2024-02-26T12:10:24;101659.49;;;4.79;57.66
31331;BME280;34067;39.548;-76.088;2024-02-26T12:12:55;101659.46;;;4.11;57.38
31331;BME280;34067;39.548;-76.088;2024-02-26T12:15:31;101653.08;;;4.45;57.25
31331;BME280;34067;39.548;-76.088;2024-02-26T12:18:01;101657.17;;;3.89;57.93
31331;BME280;34067;39.548;-76.088;2024-02-26T12:20:30;101651.73;;;4.43;57.87
31331;BME280;34067;39.548;-76.088;2024-02-26T12:22:58;101652.47;;;4.65;58.21
31331;BME280;34067;39.548;-76.088;2024-02-26T12:25:28;101655.05;;;4.68;58.02
31331;BME280;34067;39.548;-76.088;2024-02-26T12:27:57;101655.10;;;4.97;58.26
31331;BME280;34067;39.548;-76.088;2024-02-26T12:30:25;101655.34;;;4.60;57.55
31331;BME280;34067;39.548;-76.088;2024-02-26T12:32:55;101654.67;;;5.05;57.50
31331;BME280;34067;39.548;-76.088;2024-02-26T12:35:24;101657.52;;;5.23;57.73
31331;BME280;34067;39.548;-76.088;2024-02-26T12:37:52;101652.11;;;5.02;57.60
31331;BME280;34067;39.548;-76.088;2024-02-26T12:40:21;101648.30;;;5.66;57.26
31331;BME280;34067;39.548;-76.088;2024-02-26T12:42:49;101651.36;;;5.79;57.23
31331;BME280;34067;39.548;-76.088;2024-02-26T12:45:18;101655.50;;;6.00;55.59
31331;BME280;34067;39.548;-76.088;2024-02-26T12:47:46;101658.78;;;5.67;57.29